Time,TemperatureF,DewpointF,PressureIn,WindDirection,WindDirectionDegrees,WindSpeedMPH,WindSpeedGustMPH,Humidity,HourlyPrecipIn,Conditions,Clouds,dailyrainin,SolarRadiationWatts/m^2,SoftwareType,DateUTC
2013-01-26 00:01:00,36.0,32.0,-100.00,SW,222,7.0,9.0,85,-99.99,,,0.00,0.120000,,2013-01-26 07:01:00,
2013-01-26 00:11:00,36.0,32.0,-100.00,SW,222,7.0,9.0,85,-99.99,,,0.00,0.120000,,2013-01-26 07:11:00,
2013-01-26 00:41:00,37.0,31.0,-100.00,SSW,212,13.0,18.0,78,-99.99,,,0.00,0.120000,,2013-01-26 07:41:00,
2013-01-26 00:52:00,37.0,31.0,-100.00,SSW,212,13.0,18.0,78,-99.99,,,0.00,0.120000,,2013-01-26 07:52:00,
2013-01-26 01:02:00,37.0,31.0,-100.00,SSW,212,13.0,18.0,78,-99.99,,,0.00,0.120000,,2013-01-26 08:02:00,
2013-01-26 01:11:00,37.0,31.0,-100.00,SSW,212,13.0,18.0,78,-99.99,,,0.00,0.120000,,2013-01-26 08:11:00,
2013-01-26 01:42:00,36.0,30.0,-100.00,South,190,10.0,13.0,77,-99.99,,,0.00,0.120000,,2013-01-26 08:42:00,
2013-01-26 01:54:00,36.0,30.0,-100.00,South,190,10.0,13.0,77,-99.99,,,0.00,0.120000,,2013-01-26 08:54:00,
2013-01-26 02:02:00,36.0,30.0,-100.00,South,190,10.0,13.0,77,-99.99,,,0.00,0.120000,,2013-01-26 09:02:00,
2013-01-26 02:11:00,36.0,30.0,-100.00,South,190,10.0,13.0,77,-99.99,,,0.00,0.120000,,2013-01-26 09:11:00,
2013-01-26 02:42:00,34.0,30.0,-100.00,South,171,6.0,8.0,87,-99.99,,,0.00,0.120000,,2013-01-26 09:42:00,
2013-01-26 02:52:00,34.0,30.0,-100.00,South,171,6.0,8.0,87,-99.99,,,0.00,0.120000,,2013-01-26 09:52:00,
2013-01-26 03:01:00,34.0,30.0,-100.00,South,171,6.0,8.0,87,-99.99,,,0.00,0.120000,,2013-01-26 10:01:00,
2013-01-26 03:11:00,34.0,30.0,-100.00,South,171,6.0,8.0,87,-99.99,,,0.00,0.120000,,2013-01-26 10:11:00,
2013-01-26 03:42:00,35.0,31.0,-100.00,SW,222,6.0,12.0,84,-99.99,,,0.00,0.120000,,2013-01-26 10:42:00,
2013-01-26 03:52:00,35.0,31.0,-100.00,SW,222,6.0,12.0,84,-99.99,,,0.00,0.120000,,2013-01-26 10:52:00,
2013-01-26 04:01:00,35.0,31.0,-100.00,SW,222,6.0,12.0,84,-99.99,,,0.00,0.120000,,2013-01-26 11:01:00,
2013-01-26 04:12:00,35.0,31.0,-100.00,SW,222,6.0,12.0,84,-99.99,,,0.00,0.120000,,2013-01-26 11:12:00,
2013-01-26 04:42:00,37.0,30.0,-100.00,SW,218,10.0,14.0,77,-99.99,,,0.00,0.120000,,2013-01-26 11:42:00,
2013-01-26 04:52:00,37.0,30.0,-100.00,SW,218,10.0,14.0,77,-99.99,,,0.00,0.120000,,2013-01-26 11:52:00,
2013-01-26 05:02:00,37.0,30.0,-100.00,SW,218,10.0,14.0,77,-99.99,,,0.00,0.120000,,2013-01-26 12:02:00,
2013-01-26 05:12:00,37.0,30.0,-100.00,SW,218,10.0,14.0,77,-99.99,,,0.00,0.120000,,2013-01-26 12:12:00,
2013-01-26 05:42:00,35.0,30.0,-100.00,SSW,212,3.0,7.0,82,-99.99,,,-99.99,0.120000,,2013-01-26 12:42:00,
2013-01-26 05:53:00,35.0,30.0,-100.00,SSW,212,3.0,7.0,82,-99.99,,,-99.99,0.120000,,2013-01-26 12:53:00,
2013-01-26 06:03:00,35.0,30.0,-100.00,SSW,212,3.0,7.0,82,-99.99,,,-99.99,0.120000,,2013-01-26 13:03:00,
2013-01-26 06:12:00,35.0,30.0,-100.00,SSW,212,3.0,7.0,82,-99.99,,,-99.99,0.120000,,2013-01-26 13:12:00,
2013-01-26 06:42:00,38.0,30.0,-100.00,SSW,213,8.0,15.0,71,-99.99,,,0.00,0.120000,,2013-01-26 13:42:00,
2013-01-26 06:53:00,38.0,30.0,-100.00,SSW,213,8.0,15.0,71,-99.99,,,0.00,0.120000,,2013-01-26 13:53:00,
2013-01-26 07:02:00,38.0,30.0,-100.00,SSW,213,8.0,15.0,71,-99.99,,,0.00,0.120000,,2013-01-26 14:02:00,
2013-01-26 07:11:00,38.0,30.0,-100.00,SSW,213,8.0,15.0,71,-99.99,,,0.00,0.120000,,2013-01-26 14:11:00,
2013-01-26 07:42:00,37.0,29.0,-100.00,WSW,250,5.0,13.0,70,-99.99,,,0.00,0.120000,,2013-01-26 14:42:00,
2013-01-26 07:53:00,37.0,29.0,-100.00,WSW,250,5.0,13.0,70,-99.99,,,0.00,0.120000,,2013-01-26 14:53:00,
2013-01-26 08:02:00,37.0,29.0,-100.00,WSW,250,5.0,13.0,70,-99.99,,,0.00,0.120000,,2013-01-26 15:02:00,
2013-01-26 08:12:00,37.0,29.0,-100.00,WSW,250,5.0,13.0,70,-99.99,,,0.00,0.120000,,2013-01-26 15:12:00,
2013-01-26 08:43:00,32.0,27.0,-100.00,West,275,5.0,7.0,82,-99.99,,,0.00,6.860000,,2013-01-26 15:43:00,
2013-01-26 08:53:00,32.0,27.0,-100.00,West,275,5.0,7.0,82,-99.99,,,0.00,6.860000,,2013-01-26 15:53:00,
2013-01-26 09:02:00,32.0,27.0,-100.00,West,275,5.0,7.0,82,-99.99,,,0.00,6.860000,,2013-01-26 16:02:00,
2013-01-26 09:12:00,32.0,27.0,-100.00,West,275,5.0,7.0,82,-99.99,,,0.00,6.860000,,2013-01-26 16:12:00,
2013-01-26 09:32:00,34.0,28.0,-100.00,North,6,1.0,3.0,79,-99.99,,,0.00,51.599998,,2013-01-26 16:32:00,
2013-01-26 09:42:00,34.0,28.0,-100.00,North,6,1.0,3.0,79,-99.99,,,0.00,51.599998,,2013-01-26 16:42:00,
2013-01-26 09:53:00,34.0,28.0,-100.00,North,6,1.0,3.0,79,-99.99,,,0.00,51.599998,,2013-01-26 16:53:00,
2013-01-26 10:03:00,34.0,28.0,-100.00,North,6,1.0,3.0,79,-99.99,,,0.00,51.599998,,2013-01-26 17:03:00,
2013-01-26 10:12:00,34.0,28.0,-100.00,North,6,1.0,3.0,79,-99.99,,,0.00,51.599998,,2013-01-26 17:12:00,
2013-01-26 10:42:00,39.0,30.0,-100.00,SW,219,11.0,18.0,69,-99.99,,,0.00,136.210007,,2013-01-26 17:42:00,
2013-01-26 10:53:00,39.0,30.0,-100.00,SW,219,11.0,18.0,69,-99.99,,,0.00,136.210007,,2013-01-26 17:53:00,
2013-01-26 11:02:00,39.0,30.0,-100.00,SW,219,11.0,18.0,69,-99.99,,,0.00,136.210007,,2013-01-26 18:02:00,
2013-01-26 11:11:00,39.0,30.0,-100.00,SW,219,11.0,18.0,69,-99.99,,,0.00,136.210007,,2013-01-26 18:11:00,
2013-01-26 11:42:00,44.0,30.0,-100.00,SSW,201,13.0,19.0,58,-99.99,,,-99.99,279.279999,,2013-01-26 18:42:00,
2013-01-26 11:52:00,44.0,30.0,-100.00,SSW,201,13.0,19.0,58,-99.99,,,-99.99,279.279999,,2013-01-26 18:52:00,
2013-01-26 12:03:00,44.0,30.0,-100.00,SSW,201,13.0,19.0,58,-99.99,,,-99.99,279.279999,,2013-01-26 19:03:00,
2013-01-26 12:11:00,44.0,30.0,-100.00,SSW,201,13.0,19.0,58,-99.99,,,-99.99,279.279999,,2013-01-26 19:11:00,
2013-01-26 12:42:00,46.0,30.0,-100.00,South,182,16.0,24.0,53,-99.99,,,0.00,516.130005,,2013-01-26 19:42:00,
2013-01-26 12:52:00,46.0,30.0,-100.00,South,182,16.0,24.0,53,-99.99,,,0.00,516.130005,,2013-01-26 19:52:00,
2013-01-26 13:02:00,46.0,30.0,-100.00,South,182,16.0,24.0,53,-99.99,,,0.00,516.130005,,2013-01-26 20:02:00,
2013-01-26 13:11:00,46.0,30.0,-100.00,South,182,16.0,24.0,53,-99.99,,,0.00,516.130005,,2013-01-26 20:11:00,
2013-01-26 13:42:00,46.0,30.0,-100.00,South,189,19.0,27.0,53,-99.99,,,0.00,406.540009,,2013-01-26 20:42:00,
2013-01-26 13:52:00,46.0,30.0,-100.00,South,189,19.0,27.0,53,-99.99,,,0.00,406.540009,,2013-01-26 20:52:00,
2013-01-26 14:02:00,46.0,30.0,-100.00,South,189,19.0,27.0,53,-99.99,,,0.00,406.540009,,2013-01-26 21:02:00,
2013-01-26 14:12:00,46.0,30.0,-100.00,South,189,19.0,27.0,53,-99.99,,,0.00,406.540009,,2013-01-26 21:12:00,
2013-01-26 14:32:00,47.0,31.0,-100.00,South,176,18.0,25.0,53,-99.99,,,0.00,510.899994,,2013-01-26 21:32:00,
2013-01-26 14:42:00,47.0,31.0,-100.00,South,176,18.0,25.0,53,-99.99,,,0.00,510.899994,,2013-01-26 21:42:00,
2013-01-26 14:52:00,47.0,31.0,-100.00,South,176,18.0,25.0,53,-99.99,,,0.00,510.899994,,2013-01-26 21:52:00,
2013-01-26 15:01:00,47.0,31.0,-100.00,South,176,18.0,25.0,53,-99.99,,,0.00,510.899994,,2013-01-26 22:01:00,
2013-01-26 15:11:00,47.0,31.0,-100.00,South,176,18.0,25.0,53,-99.99,,,0.00,510.899994,,2013-01-26 22:11:00,
2013-01-26 15:42:00,37.0,30.0,-100.00,NNW,346,18.0,26.0,76,-99.99,,,0.00,76.940002,,2013-01-26 22:42:00,
2013-01-26 15:52:00,37.0,30.0,-100.00,NNW,346,18.0,26.0,76,-99.99,,,0.00,76.940002,,2013-01-26 22:52:00,
2013-01-26 16:01:00,37.0,30.0,-100.00,NNW,346,18.0,26.0,76,-99.99,,,0.00,76.940002,,2013-01-26 23:01:00,
2013-01-26 16:11:00,37.0,30.0,-100.00,NNW,346,18.0,26.0,76,-99.99,,,0.00,76.940002,,2013-01-26 23:11:00,
2013-01-26 16:41:00,34.0,29.0,-100.00,North,354,19.0,34.0,80,-99.99,,,0.00,54.389999,,2013-01-26 23:41:00,
2013-01-26 16:52:00,34.0,29.0,-100.00,North,354,19.0,34.0,80,-99.99,,,0.00,54.389999,,2013-01-26 23:52:00,
2013-01-26 17:02:00,34.0,29.0,-100.00,North,354,19.0,34.0,80,-99.99,,,0.00,54.389999,,2013-01-27 00:02:00,
2013-01-26 17:11:00,34.0,29.0,-100.00,North,354,19.0,34.0,80,-99.99,,,0.00,54.389999,,2013-01-27 00:11:00,
2013-01-26 17:41:00,32.0,29.0,-100.00,NNE,33,16.0,27.0,89,-99.99,,,0.00,3.140000,,2013-01-27 00:41:00,
2013-01-26 17:52:00,32.0,29.0,-100.00,NNE,33,16.0,27.0,89,-99.99,,,0.00,3.140000,,2013-01-27 00:52:00,
2013-01-26 18:01:00,32.0,29.0,-100.00,NNE,33,16.0,27.0,89,-99.99,,,0.00,3.140000,,2013-01-27 01:01:00,
2013-01-26 18:11:00,32.0,29.0,-100.00,NNE,33,16.0,27.0,89,-99.99,,,0.00,3.140000,,2013-01-27 01:11:00,
2013-01-26 18:32:00,31.0,28.0,-100.00,NE,45,14.0,21.0,89,-99.99,,,0.00,0.120000,,2013-01-27 01:32:00,
2013-01-26 18:41:00,31.0,28.0,-100.00,NE,45,14.0,21.0,89,-99.99,,,0.00,0.120000,,2013-01-27 01:41:00,
2013-01-26 18:52:00,31.0,28.0,-100.00,NE,45,14.0,21.0,89,-99.99,,,0.00,0.120000,,2013-01-27 01:52:00,
2013-01-26 19:01:00,31.0,28.0,-100.00,NE,45,14.0,21.0,89,-99.99,,,0.00,0.120000,,2013-01-27 02:01:00,
2013-01-26 19:11:00,31.0,28.0,-100.00,NE,45,14.0,21.0,89,-99.99,,,0.00,0.120000,,2013-01-27 02:11:00,
2013-01-26 19:41:00,31.0,28.0,-100.00,NE,50,9.0,15.0,88,-99.99,,,-99.99,0.120000,,2013-01-27 02:41:00,
2013-01-26 19:52:00,31.0,28.0,-100.00,NE,50,9.0,15.0,88,-99.99,,,-99.99,0.120000,,2013-01-27 02:52:00,
2013-01-26 20:01:00,31.0,28.0,-100.00,NE,50,9.0,15.0,88,-99.99,,,-99.99,0.120000,,2013-01-27 03:01:00,
2013-01-26 20:11:00,31.0,28.0,-100.00,NE,50,9.0,15.0,88,-99.99,,,-99.99,0.120000,,2013-01-27 03:11:00,
2013-01-26 20:42:00,31.0,27.0,-100.00,NE,39,5.0,8.0,85,-99.99,,,0.00,0.120000,,2013-01-27 03:42:00,
2013-01-26 20:52:00,31.0,27.0,-100.00,NE,39,5.0,8.0,85,-99.99,,,0.00,0.120000,,2013-01-27 03:52:00,
2013-01-26 21:01:00,31.0,27.0,-100.00,NE,39,5.0,8.0,85,-99.99,,,0.00,0.120000,,2013-01-27 04:01:00,
2013-01-26 21:11:00,31.0,27.0,-100.00,NE,39,5.0,8.0,85,-99.99,,,0.00,0.120000,,2013-01-27 04:11:00,
2013-01-26 21:31:00,31.0,27.0,-100.00,NNE,23,3.0,5.0,84,-99.99,,,0.00,0.120000,,2013-01-27 04:31:00,
2013-01-26 21:41:00,31.0,27.0,-100.00,NNE,23,3.0,5.0,84,-99.99,,,0.00,0.120000,,2013-01-27 04:41:00,
2013-01-26 21:52:00,31.0,27.0,-100.00,NNE,23,3.0,5.0,84,-99.99,,,0.00,0.120000,,2013-01-27 04:52:00,
2013-01-26 22:03:00,31.0,27.0,-100.00,NNE,23,3.0,5.0,84,-99.99,,,0.00,0.120000,,2013-01-27 05:03:00,
2013-01-26 22:11:00,31.0,27.0,-100.00,NNE,23,3.0,5.0,84,-99.99,,,0.00,0.120000,,2013-01-27 05:11:00,
2013-01-26 22:41:00,30.0,27.0,-100.00,NE,41,2.0,4.0,87,-99.99,,,0.00,0.120000,,2013-01-27 05:41:00,
2013-01-26 22:52:00,30.0,27.0,-100.00,NE,41,2.0,4.0,87,-99.99,,,0.00,0.120000,,2013-01-27 05:52:00,
2013-01-26 23:01:00,30.0,27.0,-100.00,NE,41,2.0,4.0,87,-99.99,,,0.00,0.120000,,2013-01-27 06:01:00,
2013-01-26 23:11:00,30.0,27.0,-100.00,NE,41,2.0,4.0,87,-99.99,,,0.00,0.120000,,2013-01-27 06:11:00,
2013-01-26 23:31:00,29.0,26.0,-100.00,NE,52,1.0,3.0,88,-99.99,,,0.00,0.120000,,2013-01-27 06:31:00,
2013-01-26 23:41:00,29.0,26.0,-100.00,NE,52,1.0,3.0,88,-99.99,,,0.00,0.120000,,2013-01-27 06:41:00,
2013-01-26 23:52:00,29.0,26.0,-100.00,NE,52,1.0,3.0,88,-99.99,,,0.00,0.120000,,2013-01-27 06:52:00,